sensor_id;sensor_type;location;lat;lon;timestamp;pressure;altitude;pressure_sealevel;temperature;humidity
34696;BME280;20918;51.138;17.370;2022-07-29T00:01:23;100493.39;;;14.18;53.08
34696;BME280;20918;51.138;17.370;2022-07-29T00:04:24;100485.78;;;14.10;53.25
34696;BME280;20918;51.138;17.370;2022-07-29T00:07:25;100494.95;;;14.12;53.41
34696;BME280;20918;51.138;17.370;2022-07-29T00:10:26;100490.80;;;14.09;53.52
34696;BME280;20918;51.138;17.370;2022-07-29T00:13:28;100492.35;;;14.04;53.64
34696;BME280;20918;51.138;17.370;2022-07-29T00:16:29;100497.91;;;13.98;53.85
34696;BME280;20918;51.138;17.370;2022-07-29T00:19:30;100495.74;;;13.98;53.89
34696;BME280;20918;51.138;17.370;2022-07-29T00:22:31;100497.08;;;13.98;54.14
34696;BME280;20918;51.138;17.370;2022-07-29T00:25:32;100487.97;;;13.88;54.20
34696;BME280;20918;51.138;17.370;2022-07-29T00:28:33;100488.53;;;13.83;54.43
34696;BME280;20918;51.138;17.370;2022-07-29T00:31:34;100492.38;;;13.81;54.66
34696;BME280;20918;51.138;17.370;2022-07-29T00:34:36;100492.39;;;13.77;54.92
34696;BME280;20918;51.138;17.370;2022-07-29T00:37:56;100499.00;;;13.66;55.27
34696;BME280;20918;51.138;17.370;2022-07-29T00:40:57;100499.56;;;13.53;55.48
34696;BME280;20918;51.138;17.370;2022-07-29T00:43:58;100491.77;;;13.48;55.73
34696;BME280;20918;51.138;17.370;2022-07-29T00:46:59;100488.95;;;13.45;55.83
34696;BME280;20918;51.138;17.370;2022-07-29T00:50:00;100487.47;;;13.42;55.89
34696;BME280;20918;51.138;17.370;2022-07-29T00:53:03;100482.69;;;13.38;55.92
34696;BME280;20918;51.138;17.370;2022-07-29T00:56:06;100491.36;;;13.32;56.13
34696;BME280;20918;51.138;17.370;2022-07-29T00:59:07;100483.72;;;13.29;56.28
34696;BME280;20918;51.138;17.370;2022-07-29T01:02:08;100481.55;;;13.32;56.34
34696;BME280;20918;51.138;17.370;2022-07-29T01:05:10;100481.56;;;13.28;56.33
34696;BME280;20918;51.138;17.370;2022-07-29T01:08:14;100485.41;;;13.21;56.49
34696;BME280;20918;51.138;17.370;2022-07-29T01:11:16;100479.11;;;13.14;56.91
34696;BME280;20918;51.138;17.370;2022-07-29T01:14:18;100475.34;;;13.05;57.10
34696;BME280;20918;51.138;17.370;2022-07-29T01:17:25;100482.70;;;12.98;57.17
34696;BME280;20918;51.138;17.370;2022-07-29T01:24:39;100488.72;;;12.88;57.78
34696;BME280;20918;51.138;17.370;2022-07-29T01:31:38;100489.60;;;12.76;58.20
34696;BME280;20918;51.138;17.370;2022-07-29T01:38:22;100477.27;;;12.79;58.59
34696;BME280;20918;51.138;17.370;2022-07-29T01:41:26;100476.29;;;12.76;58.60
34696;BME280;20918;51.138;17.370;2022-07-29T01:44:40;100474.80;;;12.74;58.76
34696;BME280;20918;51.138;17.370;2022-07-29T01:48:13;100470.33;;;12.66;58.93
34696;BME280;20918;51.138;17.370;2022-07-29T01:51:31;100472.19;;;12.62;59.27
34696;BME280;20918;51.138;17.370;2022-07-29T01:54:43;100474.66;;;12.63;59.46
34696;BME280;20918;51.138;17.370;2022-07-29T01:57:57;100467.85;;;12.65;59.44
34696;BME280;20918;51.138;17.370;2022-07-29T02:01:00;100463.86;;;12.65;59.53
34696;BME280;20918;51.138;17.370;2022-07-29T02:04:03;100465.19;;;12.61;59.58
34696;BME280;20918;51.138;17.370;2022-07-29T02:07:09;100461.03;;;12.58;59.93
34696;BME280;20918;51.138;17.370;2022-07-29T02:10:13;100466.86;;;12.62;60.21
34696;BME280;20918;51.138;17.370;2022-07-29T02:13:16;100463.51;;;12.64;60.28
34696;BME280;20918;51.138;17.370;2022-07-29T02:16:23;100464.69;;;12.65;60.20
34696;BME280;20918;51.138;17.370;2022-07-29T02:19:27;100452.86;;;12.68;60.25
34696;BME280;20918;51.138;17.370;2022-07-29T02:22:30;100456.19;;;12.70;60.27
34696;BME280;20918;51.138;17.370;2022-07-29T02:25:32;100457.17;;;12.69;60.25
34696;BME280;20918;51.138;17.370;2022-07-29T02:28:33;100456.66;;;12.69;60.21
34696;BME280;20918;51.138;17.370;2022-07-29T02:31:35;100455.84;;;12.69;60.24
34696;BME280;20918;51.138;17.370;2022-07-29T02:34:38;100454.52;;;12.69;60.30
34696;BME280;20918;51.138;17.370;2022-07-29T02:37:42;100444.05;;;12.67;60.26
34696;BME280;20918;51.138;17.370;2022-07-29T02:40:45;100452.38;;;12.64;60.37
34696;BME280;20918;51.138;17.370;2022-07-29T02:43:48;100449.56;;;12.62;60.53
34696;BME280;20918;51.138;17.370;2022-07-29T02:50:31;100445.89;;;12.63;60.75
34696;BME280;20918;51.138;17.370;2022-07-29T02:53:35;100446.55;;;12.65;60.85
34696;BME280;20918;51.138;17.370;2022-07-29T02:56:38;100447.70;;;12.66;60.88
34696;BME280;20918;51.138;17.370;2022-07-29T02:59:42;100444.69;;;12.69;60.86
34696;BME280;20918;51.138;17.370;2022-07-29T03:02:46;100445.00;;;12.74;60.89
34696;BME280;20918;51.138;17.370;2022-07-29T03:05:53;100447.66;;;12.78;60.86
34696;BME280;20918;51.138;17.370;2022-07-29T03:08:59;100446.81;;;12.78;60.83
34696;BME280;20918;51.138;17.370;2022-07-29T03:12:01;100441.86;;;12.71;61.01
34696;BME280;20918;51.138;17.370;2022-07-29T03:15:06;100447.88;;;12.61;61.16
34696;BME280;20918;51.138;17.370;2022-07-29T03:18:09;100450.91;;;12.49;61.36
34696;BME280;20918;51.138;17.370;2022-07-29T03:21:10;100444.45;;;12.48;61.51
34696;BME280;20918;51.138;17.370;2022-07-29T03:24:26;100449.08;;;12.50;61.70
34696;BME280;20918;51.138;17.370;2022-07-29T03:27:28;100449.58;;;12.49;61.79
34696;BME280;20918;51.138;17.370;2022-07-29T03:30:29;100453.92;;;12.46;62.13
34696;BME280;20918;51.138;17.370;2022-07-29T03:33:31;100455.09;;;12.48;62.23
34696;BME280;20918;51.138;17.370;2022-07-29T03:36:32;100461.41;;;12.51;62.21
34696;BME280;20918;51.138;17.370;2022-07-29T03:39:36;100461.91;;;12.50;62.30
34696;BME280;20918;51.138;17.370;2022-07-29T03:42:40;100461.23;;;12.48;62.54
34696;BME280;20918;51.138;17.370;2022-07-29T03:45:45;100463.87;;;12.56;62.55
34696;BME280;20918;51.138;17.370;2022-07-29T03:48:50;100461.55;;;12.62;62.62
34696;BME280;20918;51.138;17.370;2022-07-29T03:51:54;100466.17;;;12.64;62.76
34696;BME280;20918;51.138;17.370;2022-07-29T03:54:55;100463.96;;;12.79;62.90
34696;BME280;20918;51.138;17.370;2022-07-29T03:57:57;100463.82;;;13.08;62.96
34696;BME280;20918;51.138;17.370;2022-07-29T04:00:59;100461.84;;;13.37;62.90
34696;BME280;20918;51.138;17.370;2022-07-29T04:04:03;100466.70;;;13.61;62.80
34696;BME280;20918;51.138;17.370;2022-07-29T04:07:05;100477.14;;;13.89;62.68
34696;BME280;20918;51.138;17.370;2022-07-29T04:10:07;100479.44;;;14.30;62.17
34696;BME280;20918;51.138;17.370;2022-07-29T04:13:08;100481.09;;;14.65;61.71
34696;BME280;20918;51.138;17.370;2022-07-29T04:16:09;100481.53;;;14.84;61.21
34696;BME280;20918;51.138;17.370;2022-07-29T04:19:10;100482.56;;;15.08;60.87
34696;BME280;20918;51.138;17.370;2022-07-29T04:22:11;100481.28;;;15.30;60.68
34696;BME280;20918;51.138;17.370;2022-07-29T04:25:12;100475.86;;;15.70;60.37
34696;BME280;20918;51.138;17.370;2022-07-29T04:28:14;100478.33;;;16.21;59.84
34696;BME280;20918;51.138;17.370;2022-07-29T04:31:14;100476.25;;;16.62;59.17
34696;BME280;20918;51.138;17.370;2022-07-29T04:34:16;100473.27;;;17.02;58.56
34696;BME280;20918;51.138;17.370;2022-07-29T04:37:17;100461.13;;;17.51;58.16
34696;BME280;20918;51.138;17.370;2022-07-29T04:40:18;100460.98;;;17.99;57.64
34696;BME280;20918;51.138;17.370;2022-07-29T04:43:19;100456.91;;;18.45;56.78
34696;BME280;20918;51.138;17.370;2022-07-29T04:46:21;100459.70;;;18.84;56.45
34696;BME280;20918;51.138;17.370;2022-07-29T04:49:21;100456.53;;;19.22;55.50
34696;BME280;20918;51.138;17.370;2022-07-29T04:52:23;100453.27;;;19.52;55.26
34696;BME280;20918;51.138;17.370;2022-07-29T04:55:23;100458.13;;;19.84;54.05
34696;BME280;20918;51.138;17.370;2022-07-29T04:58:25;100463.66;;;20.05;54.12
34696;BME280;20918;51.138;17.370;2022-07-29T05:01:26;100459.72;;;20.26;53.31
34696;BME280;20918;51.138;17.370;2022-07-29T05:04:28;100453.66;;;20.56;51.89
34696;BME280;20918;51.138;17.370;2022-07-29T05:07:29;100454.31;;;20.60;51.58
34696;BME280;20918;51.138;17.370;2022-07-29T05:10:30;100457.45;;;20.85;50.07
34696;BME280;20918;51.138;17.370;2022-07-29T05:13:31;100453.11;;;20.93;49.74
34696;BME280;20918;51.138;17.370;2022-07-29T05:16:32;100456.41;;;20.95;48.34
34696;BME280;20918;51.138;17.370;2022-07-29T05:19:34;100451.45;;;21.01;48.68
34696;BME280;20918;51.138;17.370;2022-07-29T05:22:35;100451.06;;;21.07;48.22
34696;BME280;20918;51.138;17.370;2022-07-29T05:25:36;100445.98;;;20.80;48.32
34696;BME280;20918;51.138;17.370;2022-07-29T05:28:37;100445.02;;;20.93;48.42
34696;BME280;20918;51.138;17.370;2022-07-29T05:31:38;100445.28;;;21.13;47.96
34696;BME280;20918;51.138;17.370;2022-07-29T05:34:40;100442.98;;;21.28;47.29
34696;BME280;20918;51.138;17.370;2022-07-29T05:37:42;100442.45;;;21.59;47.36
34696;BME280;20918;51.138;17.370;2022-07-29T05:40:43;100446.48;;;21.47;46.26
34696;BME280;20918;51.138;17.370;2022-07-29T05:43:44;100443.89;;;21.01;46.23
34696;BME280;20918;51.138;17.370;2022-07-29T05:46:45;100452.67;;;20.59;46.03
34696;BME280;20918;51.138;17.370;2022-07-29T05:49:46;100444.33;;;20.33;46.37
34696;BME280;20918;51.138;17.370;2022-07-29T05:52:47;100453.19;;;20.15;46.77
34696;BME280;20918;51.138;17.370;2022-07-29T05:55:49;100445.91;;;20.07;47.19
34696;BME280;20918;51.138;17.370;2022-07-29T05:58:51;100446.36;;;19.79;47.38
34696;BME280;20918;51.138;17.370;2022-07-29T06:01:52;100444.37;;;19.52;47.84
34696;BME280;20918;51.138;17.370;2022-07-29T06:04:53;100441.24;;;19.55;48.28
34696;BME280;20918;51.138;17.370;2022-07-29T06:07:54;100441.38;;;19.82;48.36
34696;BME280;20918;51.138;17.370;2022-07-29T06:10:55;100439.86;;;19.77;48.37
34696;BME280;20918;51.138;17.370;2022-07-29T06:13:56;100440.13;;;19.69;48.40
34696;BME280;20918;51.138;17.370;2022-07-29T06:16:57;100439.05;;;19.77;48.68
34696;BME280;20918;51.138;17.370;2022-07-29T06:19:58;100441.52;;;20.12;48.92
34696;BME280;20918;51.138;17.370;2022-07-29T06:23:00;100435.92;;;20.23;47.95
34696;BME280;20918;51.138;17.370;2022-07-29T06:26:01;100438.69;;;20.17;48.13
34696;BME280;20918;51.138;17.370;2022-07-29T06:29:02;100442.12;;;20.14;47.70
34696;BME280;20918;51.138;17.370;2022-07-29T06:32:04;100437.88;;;20.16;47.92
34696;BME280;20918;51.138;17.370;2022-07-29T06:35:06;100441.31;;;20.32;47.87
34696;BME280;20918;51.138;17.370;2022-07-29T06:38:08;100443.02;;;20.70;47.39
34696;BME280;20918;51.138;17.370;2022-07-29T06:41:10;100445.06;;;21.05;46.96
34696;BME280;20918;51.138;17.370;2022-07-29T06:44:13;100437.17;;;21.52;45.96
34696;BME280;20918;51.138;17.370;2022-07-29T06:47:14;100440.16;;;21.74;44.98
34696;BME280;20918;51.138;17.370;2022-07-29T06:50:16;100437.88;;;21.92;44.90
34696;BME280;20918;51.138;17.370;2022-07-29T06:53:17;100437.72;;;22.08;44.62
34696;BME280;20918;51.138;17.370;2022-07-29T06:56:18;100450.66;;;22.29;43.65
34696;BME280;20918;51.138;17.370;2022-07-29T06:59:19;100438.78;;;22.42;43.88
34696;BME280;20918;51.138;17.370;2022-07-29T07:02:20;100440.23;;;22.35;43.06
34696;BME280;20918;51.138;17.370;2022-07-29T07:05:22;100440.45;;;22.20;43.25
34696;BME280;20918;51.138;17.370;2022-07-29T07:08:23;100447.11;;;22.17;43.20
34696;BME280;20918;51.138;17.370;2022-07-29T07:11:24;100445.19;;;22.27;42.75
34696;BME280;20918;51.138;17.370;2022-07-29T07:14:25;100442.08;;;22.44;42.68
34696;BME280;20918;51.138;17.370;2022-07-29T07:17:27;100442.59;;;22.55;42.38
34696;BME280;20918;51.138;17.370;2022-07-29T07:20:29;100437.23;;;22.46;42.52
34696;BME280;20918;51.138;17.370;2022-07-29T07:23:30;100440.89;;;22.40;42.57
34696;BME280;20918;51.138;17.370;2022-07-29T07:26:34;100443.87;;;22.41;42.54
34696;BME280;20918;51.138;17.370;2022-07-29T07:29:35;100437.18;;;22.44;42.79
34696;BME280;20918;51.138;17.370;2022-07-29T07:32:36;100431.72;;;22.41;41.76
34696;BME280;20918;51.138;17.370;2022-07-29T07:35:37;100427.99;;;22.30;41.65
34696;BME280;20918;51.138;17.370;2022-07-29T07:38:38;100432.13;;;22.35;42.33
34696;BME280;20918;51.138;17.370;2022-07-29T07:41:39;100430.09;;;22.66;42.49
34696;BME280;20918;51.138;17.370;2022-07-29T07:44:40;100436.69;;;22.85;41.95
34696;BME280;20918;51.138;17.370;2022-07-29T07:47:42;100439.39;;;23.11;40.98
34696;BME280;20918;51.138;17.370;2022-07-29T07:50:43;100431.75;;;23.22;41.30
34696;BME280;20918;51.138;17.370;2022-07-29T07:53:44;100431.80;;;23.24;40.53
34696;BME280;20918;51.138;17.370;2022-07-29T07:56:48;100422.42;;;23.30;41.01
34696;BME280;20918;51.138;17.370;2022-07-29T07:59:50;100430.54;;;23.30;40.84
34696;BME280;20918;51.138;17.370;2022-07-29T08:02:51;100425.52;;;23.21;40.95
34696;BME280;20918;51.138;17.370;2022-07-29T08:05:52;100430.06;;;23.18;40.80
34696;BME280;20918;51.138;17.370;2022-07-29T08:08:54;100422.33;;;23.10;40.48
34696;BME280;20918;51.138;17.370;2022-07-29T08:11:58;100417.63;;;23.20;41.35
34696;BME280;20918;51.138;17.370;2022-07-29T08:15:00;100423.05;;;23.34;40.82
34696;BME280;20918;51.138;17.370;2022-07-29T08:18:02;100424.38;;;23.48;40.30
34696;BME280;20918;51.138;17.370;2022-07-29T08:21:04;100421.78;;;23.56;40.41
34696;BME280;20918;51.138;17.370;2022-07-29T08:24:06;100431.17;;;23.65;40.34
34696;BME280;20918;51.138;17.370;2022-07-29T08:27:26;100421.10;;;23.63;40.28
34696;BME280;20918;51.138;17.370;2022-07-29T08:30:29;100429.58;;;23.84;40.12
34696;BME280;20918;51.138;17.370;2022-07-29T08:33:30;100422.69;;;24.12;39.62
34696;BME280;20918;51.138;17.370;2022-07-29T08:36:32;100429.20;;;24.31;39.42
34696;BME280;20918;51.138;17.370;2022-07-29T08:39:33;100418.20;;;24.40;38.81
34696;BME280;20918;51.138;17.370;2022-07-29T08:42:35;100426.02;;;24.75;38.42
34696;BME280;20918;51.138;17.370;2022-07-29T08:45:45;100428.47;;;25.01;37.97
34696;BME280;20918;51.138;17.370;2022-07-29T08:48:47;100415.53;;;25.11;38.20
34696;BME280;20918;51.138;17.370;2022-07-29T08:51:49;100415.16;;;25.24;38.51
34696;BME280;20918;51.138;17.370;2022-07-29T08:54:52;100416.65;;;25.13;37.56
34696;BME280;20918;51.138;17.370;2022-07-29T08:57:55;100408.44;;;24.83;37.79
34696;BME280;20918;51.138;17.370;2022-07-29T09:00:56;100417.70;;;24.63;38.41
34696;BME280;20918;51.138;17.370;2022-07-29T09:03:59;100420.86;;;24.54;38.84
34696;BME280;20918;51.138;17.370;2022-07-29T09:07:03;100417.53;;;24.47;39.16
34696;BME280;20918;51.138;17.370;2022-07-29T09:10:07;100408.30;;;24.48;39.27
34696;BME280;20918;51.138;17.370;2022-07-29T09:13:09;100409.80;;;24.39;39.24
34696;BME280;20918;51.138;17.370;2022-07-29T09:16:10;100410.50;;;24.32;39.13
34696;BME280;20918;51.138;17.370;2022-07-29T09:19:23;100414.88;;;24.33;39.41
34696;BME280;20918;51.138;17.370;2022-07-29T09:22:29;100402.58;;;24.45;39.68
34696;BME280;20918;51.138;17.370;2022-07-29T09:25:36;100413.13;;;24.66;39.26
34696;BME280;20918;51.138;17.370;2022-07-29T09:28:41;100400.89;;;24.63;38.88
34696;BME280;20918;51.138;17.370;2022-07-29T09:31:45;100402.00;;;24.65;39.31
34696;BME280;20918;51.138;17.370;2022-07-29T09:34:51;100411.13;;;24.80;38.39
34696;BME280;20918;51.138;17.370;2022-07-29T09:37:53;100397.71;;;24.93;38.78
34696;BME280;20918;51.138;17.370;2022-07-29T09:41:04;100402.39;;;24.98;38.14
34696;BME280;20918;51.138;17.370;2022-07-29T09:44:02;100396.45;;;25.01;38.58
34696;BME280;20918;51.138;17.370;2022-07-29T09:47:04;100403.29;;;25.06;38.92
34696;BME280;20918;51.138;17.370;2022-07-29T09:50:08;100402.20;;;25.07;38.58
34696;BME280;20918;51.138;17.370;2022-07-29T09:53:10;100393.22;;;25.04;38.19
34696;BME280;20918;51.138;17.370;2022-07-29T09:56:12;100395.11;;;25.03;38.51
34696;BME280;20918;51.138;17.370;2022-07-29T09:59:14;100383.14;;;25.02;38.38
34696;BME280;20918;51.138;17.370;2022-07-29T10:02:16;100385.83;;;24.99;38.50
34696;BME280;20918;51.138;17.370;2022-07-29T10:05:23;100386.02;;;24.90;38.83
34696;BME280;20918;51.138;17.370;2022-07-29T10:08:25;100387.97;;;24.95;38.84
34696;BME280;20918;51.138;17.370;2022-07-29T10:11:27;100383.78;;;24.85;38.55
34696;BME280;20918;51.138;17.370;2022-07-29T10:14:30;100377.92;;;24.71;38.69
34696;BME280;20918;51.138;17.370;2022-07-29T10:17:33;100380.84;;;24.64;38.81
34696;BME280;20918;51.138;17.370;2022-07-29T10:20:34;100375.63;;;24.60;38.89
34696;BME280;20918;51.138;17.370;2022-07-29T10:23:37;100373.77;;;24.63;39.30
34696;BME280;20918;51.138;17.370;2022-07-29T10:26:39;100377.29;;;24.64;38.87
34696;BME280;20918;51.138;17.370;2022-07-29T10:29:41;100384.34;;;24.62;38.52
34696;BME280;20918;51.138;17.370;2022-07-29T10:40:00;100374.49;;;24.80;38.35
34696;BME280;20918;51.138;17.370;2022-07-29T10:43:35;100365.23;;;24.76;38.37
34696;BME280;20918;51.138;17.370;2022-07-29T10:46:40;100374.37;;;24.68;38.46
34696;BME280;20918;51.138;17.370;2022-07-29T10:49:53;100369.78;;;24.71;38.59
34696;BME280;20918;51.138;17.370;2022-07-29T10:52:53;100369.55;;;24.72;38.95
34696;BME280;20918;51.138;17.370;2022-07-29T10:55:57;100371.14;;;24.71;38.54
34696;BME280;20918;51.138;17.370;2022-07-29T11:05:55;100371.00;;;24.82;39.02
34696;BME280;20918;51.138;17.370;2022-07-29T11:09:17;100372.30;;;24.77;38.62
34696;BME280;20918;51.138;17.370;2022-07-29T11:15:53;100361.40;;;24.99;39.45
34696;BME280;20918;51.138;17.370;2022-07-29T11:22:33;100363.39;;;25.36;38.86
34696;BME280;20918;51.138;17.370;2022-07-29T11:25:36;100354.80;;;25.47;38.54
34696;BME280;20918;51.138;17.370;2022-07-29T11:29:02;100354.58;;;25.51;38.25
34696;BME280;20918;51.138;17.370;2022-07-29T11:32:10;100344.02;;;25.57;37.86
34696;BME280;20918;51.138;17.370;2022-07-29T11:35:23;100353.25;;;25.59;38.04
34696;BME280;20918;51.138;17.370;2022-07-29T11:38:25;100347.59;;;25.63;37.72
34696;BME280;20918;51.138;17.370;2022-07-29T11:41:27;100357.62;;;25.60;38.09
34696;BME280;20918;51.138;17.370;2022-07-29T11:48:14;100362.84;;;25.69;38.10
34696;BME280;20918;51.138;17.370;2022-07-29T11:51:17;100354.41;;;25.65;38.29
34696;BME280;20918;51.138;17.370;2022-07-29T11:54:28;100356.63;;;25.76;38.16
34696;BME280;20918;51.138;17.370;2022-07-29T11:57:31;100350.16;;;25.80;37.64
34696;BME280;20918;51.138;17.370;2022-07-29T12:00:37;100344.73;;;25.82;37.73
34696;BME280;20918;51.138;17.370;2022-07-29T12:03:40;100340.18;;;25.93;37.54
34696;BME280;20918;51.138;17.370;2022-07-29T12:06:41;100355.92;;;25.86;37.06
34696;BME280;20918;51.138;17.370;2022-07-29T12:09:52;100342.50;;;25.74;37.69
34696;BME280;20918;51.138;17.370;2022-07-29T12:12:54;100338.95;;;25.71;37.51
34696;BME280;20918;51.138;17.370;2022-07-29T12:15:56;100342.73;;;25.70;37.63
34696;BME280;20918;51.138;17.370;2022-07-29T12:19:04;100330.91;;;25.86;37.33
34696;BME280;20918;51.138;17.370;2022-07-29T12:22:05;100325.25;;;25.96;37.23
34696;BME280;20918;51.138;17.370;2022-07-29T12:25:13;100331.02;;;26.07;37.64
34696;BME280;20918;51.138;17.370;2022-07-29T12:28:21;100333.55;;;26.26;37.82
34696;BME280;20918;51.138;17.370;2022-07-29T12:31:23;100325.71;;;26.37;37.87
34696;BME280;20918;51.138;17.370;2022-07-29T12:34:26;100320.90;;;26.55;38.00
34696;BME280;20918;51.138;17.370;2022-07-29T12:37:28;100315.77;;;26.61;37.93
34696;BME280;20918;51.138;17.370;2022-07-29T12:40:29;100312.51;;;26.74;37.39
34696;BME280;20918;51.138;17.370;2022-07-29T12:43:30;100324.52;;;26.83;37.69
34696;BME280;20918;51.138;17.370;2022-07-29T12:46:32;100311.69;;;26.69;37.33
34696;BME280;20918;51.138;17.370;2022-07-29T12:49:33;100324.95;;;26.50;37.81
34696;BME280;20918;51.138;17.370;2022-07-29T12:52:35;100310.47;;;26.31;37.82
34696;BME280;20918;51.138;17.370;2022-07-29T12:55:41;100306.60;;;26.17;37.97
34696;BME280;20918;51.138;17.370;2022-07-29T12:58:43;100312.78;;;26.00;37.82
34696;BME280;20918;51.138;17.370;2022-07-29T13:01:46;100304.87;;;25.98;38.04
34696;BME280;20918;51.138;17.370;2022-07-29T13:04:57;100301.34;;;25.98;38.25
34696;BME280;20918;51.138;17.370;2022-07-29T13:08:14;100295.67;;;26.02;38.01
34696;BME280;20918;51.138;17.370;2022-07-29T13:11:31;100285.59;;;26.00;38.40
34696;BME280;20918;51.138;17.370;2022-07-29T13:14:44;100292.09;;;25.99;38.96
34696;BME280;20918;51.138;17.370;2022-07-29T13:17:43;100288.03;;;26.01;38.95
34696;BME280;20918;51.138;17.370;2022-07-29T13:20:44;100284.28;;;26.07;39.22
34696;BME280;20918;51.138;17.370;2022-07-29T13:23:45;100288.65;;;26.13;38.97
34696;BME280;20918;51.138;17.370;2022-07-29T13:26:46;100295.97;;;26.08;38.61
34696;BME280;20918;51.138;17.370;2022-07-29T13:29:48;100282.88;;;26.00;38.41
34696;BME280;20918;51.138;17.370;2022-07-29T13:32:52;100281.46;;;25.89;38.37
34696;BME280;20918;51.138;17.370;2022-07-29T13:35:53;100281.45;;;25.87;38.65
34696;BME280;20918;51.138;17.370;2022-07-29T13:38:54;100271.41;;;25.92;38.85
34696;BME280;20918;51.138;17.370;2022-07-29T13:41:56;100273.91;;;26.04;38.64
34696;BME280;20918;51.138;17.370;2022-07-29T13:44:57;100261.69;;;26.07;38.70
34696;BME280;20918;51.138;17.370;2022-07-29T13:47:58;100255.51;;;26.22;38.28
34696;BME280;20918;51.138;17.370;2022-07-29T13:50:59;100247.05;;;26.18;38.36
34696;BME280;20918;51.138;17.370;2022-07-29T13:54:03;100248.16;;;26.22;37.99
34696;BME280;20918;51.138;17.370;2022-07-29T13:57:05;100253.87;;;26.23;38.67
34696;BME280;20918;51.138;17.370;2022-07-29T14:00:07;100260.13;;;26.26;38.79
34696;BME280;20918;51.138;17.370;2022-07-29T14:03:11;100256.03;;;26.16;38.24
34696;BME280;20918;51.138;17.370;2022-07-29T14:06:12;100265.25;;;26.07;38.28
34696;BME280;20918;51.138;17.370;2022-07-29T14:09:15;100266.84;;;26.03;38.63
34696;BME280;20918;51.138;17.370;2022-07-29T14:12:18;100259.21;;;25.98;38.67
34696;BME280;20918;51.138;17.370;2022-07-29T14:15:20;100253.77;;;25.98;38.38
34696;BME280;20918;51.138;17.370;2022-07-29T14:18:22;100259.20;;;25.95;38.63
34696;BME280;20918;51.138;17.370;2022-07-29T14:21:23;100249.42;;;25.94;38.58
34696;BME280;20918;51.138;17.370;2022-07-29T14:24:24;100246.97;;;25.95;38.90
34696;BME280;20918;51.138;17.370;2022-07-29T14:27:25;100247.27;;;26.04;38.78
34696;BME280;20918;51.138;17.370;2022-07-29T14:30:26;100244.63;;;26.19;38.91
34696;BME280;20918;51.138;17.370;2022-07-29T14:33:27;100247.90;;;26.29;38.80
34696;BME280;20918;51.138;17.370;2022-07-29T14:36:28;100254.98;;;26.27;38.82
34696;BME280;20918;51.138;17.370;2022-07-29T14:39:29;100251.42;;;26.27;39.33
34696;BME280;20918;51.138;17.370;2022-07-29T14:42:30;100249.55;;;26.37;39.38
34696;BME280;20918;51.138;17.370;2022-07-29T14:45:36;100248.48;;;26.38;39.02
34696;BME280;20918;51.138;17.370;2022-07-29T14:48:39;100240.86;;;26.33;39.36
34696;BME280;20918;51.138;17.370;2022-07-29T14:51:40;100239.45;;;26.20;39.35
34696;BME280;20918;51.138;17.370;2022-07-29T14:54:41;100243.80;;;26.16;39.85
34696;BME280;20918;51.138;17.370;2022-07-29T14:57:43;100239.96;;;26.12;39.89
34696;BME280;20918;51.138;17.370;2022-07-29T15:00:44;100236.22;;;26.31;40.39
34696;BME280;20918;51.138;17.370;2022-07-29T15:03:45;100232.70;;;26.46;40.33
34696;BME280;20918;51.138;17.370;2022-07-29T15:06:46;100237.33;;;26.43;39.92
34696;BME280;20918;51.138;17.370;2022-07-29T15:09:47;100226.95;;;26.29;40.33
34696;BME280;20918;51.138;17.370;2022-07-29T15:12:48;100225.29;;;26.10;40.07
34696;BME280;20918;51.138;17.370;2022-07-29T15:15:49;100223.86;;;25.95;40.17
34696;BME280;20918;51.138;17.370;2022-07-29T15:18:50;100221.96;;;25.90;40.56
34696;BME280;20918;51.138;17.370;2022-07-29T15:21:51;100221.94;;;25.85;40.90
34696;BME280;20918;51.138;17.370;2022-07-29T15:24:53;100218.38;;;25.87;41.20
34696;BME280;20918;51.138;17.370;2022-07-29T15:27:54;100220.28;;;25.84;40.87
34696;BME280;20918;51.138;17.370;2022-07-29T15:30:55;100217.50;;;25.74;40.91
34696;BME280;20918;51.138;17.370;2022-07-29T15:33:57;100218.04;;;25.71;41.29
34696;BME280;20918;51.138;17.370;2022-07-29T15:36:57;100212.05;;;25.71;41.01
34696;BME280;20918;51.138;17.370;2022-07-29T15:39:59;100215.84;;;25.73;41.33
34696;BME280;20918;51.138;17.370;2022-07-29T15:43:03;100219.67;;;25.75;41.20
34696;BME280;20918;51.138;17.370;2022-07-29T15:46:05;100216.15;;;25.74;40.98
34696;BME280;20918;51.138;17.370;2022-07-29T15:49:25;100212.05;;;25.69;40.95
34696;BME280;20918;51.138;17.370;2022-07-29T15:52:33;100205.23;;;25.66;41.13
34696;BME280;20918;51.138;17.370;2022-07-29T15:55:34;100210.11;;;25.64;41.28
34696;BME280;20918;51.138;17.370;2022-07-29T15:58:35;100208.73;;;25.62;41.12
34696;BME280;20918;51.138;17.370;2022-07-29T16:01:36;100203.28;;;25.54;41.14
34696;BME280;20918;51.138;17.370;2022-07-29T16:04:37;100200.55;;;25.52;41.42
34696;BME280;20918;51.138;17.370;2022-07-29T16:07:38;100197.81;;;25.49;41.36
34696;BME280;20918;51.138;17.370;2022-07-29T16:10:39;100196.69;;;25.45;41.62
34696;BME280;20918;51.138;17.370;2022-07-29T16:13:41;100201.58;;;25.40;41.79
34696;BME280;20918;51.138;17.370;2022-07-29T16:16:42;100196.92;;;25.36;41.75
34696;BME280;20918;51.138;17.370;2022-07-29T16:19:44;100193.63;;;25.29;42.02
34696;BME280;20918;51.138;17.370;2022-07-29T16:22:45;100194.92;;;25.18;42.14
34696;BME280;20918;51.138;17.370;2022-07-29T16:25:46;100193.45;;;25.08;42.45